createdAt,value
2022-11-15T00:00:41.047Z,3.43
2022-11-15T00:03:09.411Z,5.77
2022-11-15T00:05:37.876Z,7.03
2022-11-15T00:08:06.234Z,4.73
2022-11-15T00:10:34.605Z,3.97
2022-11-15T00:13:02.813Z,5.57
2022-11-15T00:15:32.462Z,4.40
2022-11-15T00:18:00.763Z,2.90
2022-11-15T00:20:29.065Z,5.30
2022-11-15T00:22:57.397Z,4.57
2022-11-15T00:25:25.695Z,5.00
2022-11-15T00:27:57.579Z,3.80
2022-11-15T00:30:25.919Z,3.10
2022-11-15T00:32:55.545Z,2.83
2022-11-15T00:35:23.895Z,6.13
2022-11-15T00:37:52.276Z,9.40
2022-11-15T00:40:20.522Z,4.33
2022-11-15T00:42:48.803Z,2.47
2022-11-15T00:45:17.470Z,4.63
2022-11-15T00:47:47.229Z,3.67
2022-11-15T00:50:17.156Z,6.27
2022-11-15T00:52:45.454Z,3.10
2022-11-15T00:55:16.061Z,6.03
2022-11-15T00:57:44.430Z,5.00
2022-11-15T01:00:13.390Z,4.37
2022-11-15T01:02:41.719Z,4.43
2022-11-15T01:05:10.631Z,5.00
2022-11-15T01:07:40.322Z,3.80
2022-11-15T01:10:09.073Z,4.30
2022-11-15T01:12:37.380Z,5.47
2022-11-15T01:15:05.869Z,4.67
2022-11-15T01:17:34.131Z,5.53
2022-11-15T01:20:02.557Z,4.80
2022-11-15T01:22:30.794Z,2.90
2022-11-15T01:25:00.703Z,4.53
2022-11-15T01:27:29.199Z,3.13
2022-11-15T01:29:57.467Z,4.27
2022-11-15T01:32:25.910Z,5.03
2022-11-15T01:34:54.192Z,3.57
2022-11-15T01:37:22.476Z,5.90
2022-11-15T01:39:50.801Z,3.27
2022-11-15T01:42:20.767Z,4.90
2022-11-15T01:44:49.672Z,4.73
2022-11-15T01:47:18.581Z,7.43
2022-11-15T01:49:49.730Z,3.40
2022-11-15T01:52:18.916Z,3.33
2022-11-15T01:54:47.237Z,4.33
2022-11-15T01:57:15.525Z,8.33
2022-11-15T01:59:45.554Z,2.23
2022-11-15T02:02:14.734Z,6.13
2022-11-15T02:04:43.634Z,3.47
2022-11-15T02:07:12.773Z,2.47
2022-11-15T02:09:41.282Z,4.93
2022-11-15T02:12:10.015Z,6.23
2022-11-15T02:14:38.569Z,5.17
2022-11-15T02:17:10.912Z,6.17
2022-11-15T02:19:43.499Z,4.70
2022-11-15T02:22:14.160Z,6.83
2022-11-15T02:24:48.814Z,4.33
2022-11-15T02:27:32.073Z,5.47
2022-11-15T02:30:10.055Z,3.37
2022-11-15T02:32:41.273Z,4.87
2022-11-15T02:35:11.759Z,4.67
2022-11-15T02:37:41.788Z,3.57
2022-11-15T02:40:10.734Z,4.20
2022-11-15T02:43:08.272Z,6.50
2022-11-15T02:45:38.545Z,4.60
2022-11-15T02:48:08.311Z,3.63
2022-11-15T02:50:36.648Z,6.20
2022-11-15T02:53:04.970Z,4.73
2022-11-15T02:55:33.596Z,5.00
2022-11-15T02:58:05.937Z,8.23
2022-11-15T03:00:34.540Z,3.90
2022-11-15T03:03:17.788Z,3.63
2022-11-15T03:05:47.356Z,3.80
2022-11-15T03:08:20.653Z,3.77
2022-11-15T03:10:49.948Z,5.30
2022-11-15T03:13:21.409Z,2.90
2022-11-15T03:15:51.056Z,5.37
2022-11-15T03:18:22.220Z,4.27
2022-11-15T03:20:50.529Z,6.57
2022-11-15T03:23:18.855Z,3.43
2022-11-15T03:25:48.559Z,5.20
2022-11-15T03:28:21.795Z,5.37
2022-11-15T03:30:50.076Z,5.73
2022-11-15T03:33:18.549Z,3.03
2022-11-15T03:35:48.233Z,11.40
2022-11-15T03:38:17.747Z,6.90
2022-11-15T03:40:48.287Z,5.57
2022-11-15T03:43:18.085Z,3.70
2022-11-15T03:45:46.817Z,4.73
2022-11-15T03:48:16.065Z,4.13
2022-11-15T03:50:44.546Z,3.90
2022-11-15T03:53:14.182Z,5.00
2022-11-15T03:55:42.495Z,3.03
2022-11-15T03:58:10.757Z,4.97
2022-11-15T04:00:39.161Z,3.33
2022-11-15T04:03:08.408Z,4.00
2022-11-15T04:05:36.697Z,3.03
2022-11-15T04:08:05.089Z,3.20
2022-11-15T04:10:34.781Z,3.60
2022-11-15T04:13:04.503Z,2.47
2022-11-15T04:15:32.917Z,3.33
2022-11-15T04:18:01.242Z,2.13
2022-11-15T04:20:47.192Z,2.43
2022-11-15T04:23:33.868Z,4.07
2022-11-15T04:26:04.696Z,5.20
2022-11-15T04:28:32.982Z,5.77
2022-11-15T04:31:01.361Z,2.80
2022-11-15T04:33:30.084Z,3.40
2022-11-15T04:36:16.470Z,2.60
2022-11-15T04:38:44.741Z,2.53
2022-11-15T04:41:14.417Z,4.73
2022-11-15T04:43:42.823Z,2.10
2022-11-15T04:46:11.132Z,4.47
2022-11-15T04:48:39.427Z,8.07
2022-11-15T04:51:07.756Z,3.23
2022-11-15T04:53:36.047Z,2.77
2022-11-15T04:56:04.431Z,3.03
2022-11-15T04:58:34.765Z,2.37
2022-11-15T05:01:09.013Z,3.97
2022-11-15T05:03:55.039Z,3.17
2022-11-15T05:06:23.346Z,1.57
2022-11-15T05:08:51.658Z,2.30
2022-11-15T05:11:19.990Z,2.63
2022-11-15T05:13:49.772Z,1.93
2022-11-15T05:16:18.035Z,3.57
2022-11-15T05:18:46.357Z,1.90
2022-11-15T05:21:15.125Z,7.77
2022-11-15T05:23:43.507Z,1.80
2022-11-15T05:26:11.800Z,2.37
2022-11-15T05:28:40.198Z,2.30
2022-11-15T05:31:10.251Z,2.13
2022-11-15T05:33:38.662Z,1.53
2022-11-15T05:36:07.582Z,4.07
2022-11-15T05:38:35.932Z,1.70
2022-11-15T05:41:04.361Z,2.93
2022-11-15T05:43:32.753Z,1.47
2022-11-15T05:46:01.263Z,4.93
2022-11-15T05:48:30.951Z,1.73
2022-11-15T05:50:59.266Z,1.53
2022-11-15T05:53:27.638Z,1.93
2022-11-15T05:55:55.928Z,2.90
2022-11-15T05:58:24.204Z,1.60
2022-11-15T06:00:52.598Z,2.37
2022-11-15T06:03:20.993Z,2.27
2022-11-15T06:05:50.720Z,1.17
2022-11-15T06:08:18.994Z,1.83
2022-11-15T06:10:47.394Z,1.53
2022-11-15T06:13:15.710Z,1.40
2022-11-15T06:15:43.950Z,2.50
2022-11-15T06:18:12.338Z,1.60
2022-11-15T06:20:40.735Z,1.83
2022-11-15T06:23:10.345Z,2.30
2022-11-15T06:25:39.003Z,1.77
2022-11-15T06:28:07.285Z,1.27
2022-11-15T06:30:35.641Z,2.97
2022-11-15T06:33:04.103Z,1.90
2022-11-15T06:35:33.772Z,0.77
2022-11-15T06:38:04.612Z,1.37
2022-11-15T06:40:35.329Z,2.20
2022-11-15T06:43:03.630Z,1.73
2022-11-15T06:45:32.017Z,1.60
2022-11-15T06:48:00.366Z,2.80
2022-11-15T06:50:28.626Z,3.27
2022-11-15T06:52:56.975Z,1.53
2022-11-15T06:55:25.226Z,1.90
2022-11-15T06:57:55.602Z,3.23
2022-11-15T07:00:24.068Z,0.90
2022-11-15T07:02:52.356Z,1.33
2022-11-15T07:05:21.101Z,1.03
2022-11-15T07:07:54.241Z,1.73
2022-11-15T07:10:22.645Z,1.83
2022-11-15T07:12:50.954Z,0.70
2022-11-15T07:15:20.813Z,1.10
2022-11-15T07:17:49.149Z,2.13
2022-11-15T07:20:17.674Z,1.73
2022-11-15T07:22:46.969Z,1.33
2022-11-15T07:25:15.414Z,2.63
2022-11-15T07:27:43.980Z,2.00
2022-11-15T07:30:15.491Z,1.70
2022-11-15T07:32:45.563Z,1.10
2022-11-15T07:35:13.871Z,3.60
2022-11-15T07:37:42.435Z,0.83
2022-11-15T07:40:11.763Z,2.47
2022-11-15T07:42:55.093Z,1.77
2022-11-15T07:45:23.446Z,1.13
2022-11-15T07:47:53.151Z,1.70
2022-11-15T07:50:21.618Z,0.80
2022-11-15T07:52:49.950Z,1.60
2022-11-15T07:55:18.412Z,1.33
2022-11-15T07:57:46.855Z,1.67
2022-11-15T08:00:16.508Z,1.30
2022-11-15T08:02:44.980Z,1.50
2022-11-15T08:05:15.382Z,1.03
2022-11-15T08:07:43.677Z,1.73
2022-11-15T08:10:12.965Z,0.77
2022-11-15T08:12:41.398Z,3.80
2022-11-15T08:15:09.907Z,0.97
2022-11-15T08:17:38.295Z,1.17
2022-11-15T08:20:07.033Z,1.03
2022-11-15T08:22:37.669Z,1.00
2022-11-15T08:25:07.668Z,1.10
2022-11-15T08:27:36.007Z,0.70
2022-11-15T08:30:04.460Z,1.13
2022-11-15T08:32:33.197Z,3.57
2022-11-15T08:35:01.466Z,0.63
2022-11-15T08:37:29.828Z,0.73
2022-11-15T08:39:58.106Z,1.13
2022-11-15T08:42:27.774Z,0.50
2022-11-15T08:44:56.056Z,0.97
2022-11-15T08:47:25.019Z,0.87
2022-11-15T08:49:53.342Z,0.40
2022-11-15T08:52:21.721Z,3.00
2022-11-15T08:54:50.047Z,1.90
2022-11-15T08:57:18.477Z,0.50
2022-11-15T08:59:48.289Z,1.00
2022-11-15T09:02:16.781Z,0.50
2022-11-15T09:04:45.167Z,0.73
2022-11-15T09:07:13.887Z,4.93
2022-11-15T09:09:42.229Z,0.63
2022-11-15T09:12:10.592Z,2.30
2022-11-15T09:14:39.087Z,0.93
2022-11-15T09:17:11.096Z,2.03
2022-11-15T09:19:39.564Z,1.03
2022-11-15T09:22:08.801Z,0.40
2022-11-15T09:24:37.098Z,1.43
2022-11-15T09:27:05.661Z,0.83
2022-11-15T09:29:34.812Z,0.63
2022-11-15T09:32:03.069Z,0.60
2022-11-15T09:34:33.098Z,0.50
2022-11-15T09:37:01.433Z,0.47
2022-11-15T09:39:29.759Z,1.50
2022-11-15T09:42:13.030Z,0.63
2022-11-15T09:44:43.904Z,0.40
2022-11-15T09:47:19.067Z,0.93
2022-11-15T09:49:50.788Z,1.77
2022-11-15T09:52:22.194Z,0.97
2022-11-15T09:54:53.907Z,0.50
2022-11-15T09:57:24.122Z,1.27
2022-11-15T10:00:30.641Z,0.47
2022-11-15T10:03:12.768Z,0.30
2022-11-15T10:05:42.636Z,1.07
2022-11-15T10:08:14.971Z,0.40
2022-11-15T10:10:43.903Z,3.60
2022-11-15T10:13:13.587Z,0.77
2022-11-15T10:15:42.100Z,0.30
2022-11-15T10:18:11.340Z,0.40
2022-11-15T10:20:45.271Z,1.03
2022-11-15T10:23:14.238Z,0.73
2022-11-15T10:25:42.555Z,0.33
2022-11-15T10:28:12.850Z,1.33
2022-11-15T10:30:42.349Z,0.90
2022-11-15T10:33:26.406Z,0.80
2022-11-15T10:36:09.649Z,0.40
2022-11-15T10:38:45.466Z,0.53
2022-11-15T10:41:14.129Z,1.50
2022-11-15T10:43:42.398Z,0.40
2022-11-15T10:46:44.981Z,0.50
2022-11-15T10:49:17.652Z,0.33
2022-11-15T10:51:47.286Z,0.73
2022-11-15T10:54:21.039Z,0.50
2022-11-15T10:56:51.498Z,0.50
2022-11-15T10:59:22.463Z,0.20
2022-11-15T11:01:50.956Z,0.47
2022-11-15T11:04:20.427Z,0.67
2022-11-15T11:06:49.600Z,0.60
2022-11-15T11:09:32.166Z,0.70
2022-11-15T11:12:00.548Z,1.00
2022-11-15T11:14:29.208Z,0.40
2022-11-15T11:16:58.421Z,0.33
2022-11-15T11:19:45.624Z,0.20
2022-11-15T11:22:16.549Z,0.37
2022-11-15T11:24:47.911Z,0.67
2022-11-15T11:27:28.280Z,0.60
2022-11-15T11:30:01.369Z,0.30
2022-11-15T11:32:34.134Z,0.20
2022-11-15T11:35:04.988Z,0.43
2022-11-15T11:37:34.548Z,0.50
2022-11-15T11:40:10.735Z,0.60
2022-11-15T11:42:40.924Z,0.30
2022-11-15T11:45:13.830Z,0.27
2022-11-15T11:47:42.567Z,1.00
2022-11-15T11:50:13.875Z,1.13
2022-11-15T11:52:43.740Z,0.40
2022-11-15T11:55:17.765Z,0.70
2022-11-15T11:57:47.380Z,0.50
2022-11-15T12:00:17.785Z,3.27
2022-11-15T12:02:46.659Z,0.53
2022-11-15T12:05:16.616Z,2.50
2022-11-15T12:07:44.902Z,0.47
2022-11-15T12:10:22.094Z,1.77
2022-11-15T12:12:52.374Z,0.87
2022-11-15T12:15:21.395Z,0.83
2022-11-15T12:17:49.763Z,1.00
2022-11-15T12:20:18.723Z,0.63
2022-11-15T12:22:47.817Z,1.40
2022-11-15T12:25:17.780Z,0.57
2022-11-15T12:27:48.247Z,3.97
2022-11-15T12:30:17.229Z,1.07
2022-11-15T12:32:52.208Z,1.13
2022-11-15T12:35:24.584Z,2.23
2022-11-15T12:37:53.536Z,0.53
2022-11-15T12:40:25.755Z,0.40
2022-11-15T12:43:05.873Z,3.17
2022-11-15T12:45:34.692Z,0.50
2022-11-15T12:48:21.775Z,0.33
2022-11-15T12:50:56.406Z,0.50
2022-11-15T12:53:31.571Z,1.33
2022-11-15T12:56:18.761Z,0.30
2022-11-15T12:58:48.970Z,0.40
2022-11-15T13:01:32.875Z,2.20
2022-11-15T13:04:11.308Z,0.47
2022-11-15T13:06:40.939Z,0.40
2022-11-15T13:09:24.246Z,1.20
2022-11-15T13:11:53.334Z,1.70
2022-11-15T13:14:40.942Z,0.30
2022-11-15T13:17:42.352Z,0.53
2022-11-15T13:20:28.727Z,0.20
2022-11-15T13:23:04.008Z,0.53
2022-11-15T13:25:56.437Z,0.77
2022-11-15T13:28:27.100Z,0.93
2022-11-15T13:30:55.621Z,1.60
2022-11-15T13:33:25.516Z,0.57
2022-11-15T13:35:54.564Z,0.20
2022-11-15T13:38:30.075Z,1.57
2022-11-15T13:40:58.883Z,0.20
2022-11-15T13:43:30.109Z,1.80
2022-11-15T13:46:06.871Z,1.17
2022-11-15T13:48:35.826Z,0.40
2022-11-15T13:51:04.351Z,0.40
2022-11-15T13:53:34.634Z,0.40
2022-11-15T13:56:04.390Z,0.30
2022-11-15T13:58:34.192Z,0.40
2022-11-15T14:01:03.327Z,0.30
2022-11-15T14:03:32.126Z,0.50
2022-11-15T14:06:05.640Z,1.33
2022-11-15T14:08:35.815Z,0.30
2022-11-15T14:11:17.765Z,1.60
2022-11-15T14:14:01.756Z,0.63
2022-11-15T14:16:35.359Z,0.50
2022-11-15T14:19:03.937Z,1.13
2022-11-15T14:21:32.370Z,0.50
2022-11-15T14:24:15.524Z,0.30
2022-11-15T14:26:45.144Z,2.20
2022-11-15T14:29:26.307Z,0.30
2022-11-15T14:31:54.613Z,0.73
2022-11-15T14:34:23.522Z,0.47
2022-11-15T14:36:51.841Z,8.83
2022-11-15T14:39:20.101Z,0.50
2022-11-15T14:41:49.809Z,0.30
2022-11-15T14:44:19.553Z,1.27
2022-11-15T14:46:49.075Z,4.67
2022-11-15T14:49:17.651Z,0.87
2022-11-15T14:51:45.926Z,0.40
2022-11-15T14:54:14.184Z,0.20
2022-11-15T14:56:43.794Z,0.30
2022-11-15T14:59:13.431Z,0.77
2022-11-15T15:01:41.788Z,1.07
2022-11-15T15:04:11.549Z,0.80
2022-11-15T15:06:39.922Z,0.30
2022-11-15T15:09:08.218Z,0.30
2022-11-15T15:11:36.553Z,0.30
2022-11-15T15:14:04.859Z,0.40
2022-11-15T15:16:34.508Z,0.93
2022-11-15T15:19:03.046Z,0.63
2022-11-15T15:21:36.892Z,0.60
2022-11-15T15:24:05.765Z,0.53
2022-11-15T15:26:35.965Z,0.67
2022-11-15T15:29:04.293Z,0.40
2022-11-15T15:31:34.857Z,1.60
2022-11-15T15:34:03.199Z,2.53
2022-11-15T15:36:31.451Z,0.40
2022-11-15T15:38:59.969Z,0.93
2022-11-15T15:41:28.437Z,0.50
2022-11-15T15:43:56.787Z,2.10
2022-11-15T15:46:25.231Z,3.30
2022-11-15T15:48:54.967Z,0.50
2022-11-15T15:51:23.301Z,0.97
2022-11-15T15:53:53.805Z,0.30
2022-11-15T15:56:22.088Z,0.27
2022-11-15T15:58:50.407Z,1.90
2022-11-15T16:01:18.924Z,0.27
2022-11-15T16:03:47.200Z,1.33
2022-11-15T16:06:33.923Z,0.93
2022-11-15T16:09:19.028Z,0.53
2022-11-15T16:11:48.322Z,0.30
2022-11-15T16:14:16.655Z,0.30
2022-11-15T16:16:45.033Z,0.53
2022-11-15T16:19:14.210Z,0.47
2022-11-15T16:21:42.572Z,1.33
2022-11-15T16:24:12.236Z,0.40
2022-11-15T16:26:40.667Z,0.40
2022-11-15T16:29:10.290Z,0.40
2022-11-15T16:31:38.661Z,0.57
2022-11-15T16:34:07.298Z,1.00
2022-11-15T16:36:35.785Z,1.47
2022-11-15T16:39:05.315Z,0.53
2022-11-15T16:41:35.083Z,0.50
2022-11-15T16:44:03.379Z,0.93
2022-11-15T16:46:31.782Z,2.43
2022-11-15T16:49:00.248Z,1.03
2022-11-15T16:51:28.508Z,3.23
2022-11-15T16:53:56.806Z,0.27
2022-11-15T16:56:26.114Z,0.50
2022-11-15T16:58:58.507Z,2.73
2022-11-15T17:01:27.498Z,0.53
2022-11-15T17:03:56.012Z,1.00
2022-11-15T17:06:24.470Z,0.73
2022-11-15T17:08:52.951Z,0.87
2022-11-15T17:11:21.604Z,2.80
2022-11-15T17:13:49.857Z,1.90
2022-11-15T17:16:19.872Z,2.63
2022-11-15T17:18:51.644Z,0.67
2022-11-15T17:21:20.523Z,0.60
2022-11-15T17:23:48.928Z,0.53
2022-11-15T17:26:29.660Z,0.90
2022-11-15T17:29:01.039Z,0.87
2022-11-15T17:31:33.776Z,2.20
2022-11-15T17:34:02.442Z,0.70
2022-11-15T17:36:30.805Z,0.40
2022-11-15T17:38:59.866Z,1.33
2022-11-15T17:41:28.888Z,3.07
2022-11-15T17:43:58.957Z,3.50
2022-11-15T17:46:27.287Z,1.80
2022-11-15T17:48:57.256Z,0.70
2022-11-15T17:51:25.583Z,3.03
2022-11-15T17:53:53.894Z,0.60
2022-11-15T17:56:22.549Z,1.20
2022-11-15T17:58:51.190Z,1.70
2022-11-15T18:01:20.337Z,0.40
2022-11-15T18:03:49.306Z,2.23
2022-11-15T18:06:19.203Z,0.60
2022-11-15T18:08:49.149Z,2.37
2022-11-15T18:11:18.465Z,2.00
2022-11-15T18:13:52.044Z,1.30
2022-11-15T18:16:21.264Z,2.23
2022-11-15T18:18:49.596Z,1.10
2022-11-15T18:21:20.147Z,0.60
2022-11-15T18:23:48.593Z,1.60
2022-11-15T18:26:17.402Z,0.70
2022-11-15T18:28:46.027Z,0.40
2022-11-15T18:31:14.915Z,412.60
2022-11-15T18:33:43.432Z,1188.93
2022-11-15T18:36:12.202Z,621.10
2022-11-15T18:38:42.040Z,487.63
2022-11-15T18:41:10.880Z,451.43
2022-11-15T18:43:39.243Z,384.57
2022-11-15T18:46:09.195Z,339.07
2022-11-15T18:48:37.762Z,339.43
2022-11-15T18:51:06.343Z,332.73
2022-11-15T18:53:35.080Z,269.00
2022-11-15T18:56:05.086Z,251.53
2022-11-15T18:58:33.851Z,240.63
2022-11-15T19:01:02.930Z,232.03
2022-11-15T19:03:34.510Z,191.67
2022-11-15T19:06:03.677Z,179.47
2022-11-15T19:08:35.390Z,225.07
2022-11-15T19:11:06.075Z,160.13
2022-11-15T19:13:34.804Z,148.33
2022-11-15T19:16:03.687Z,168.17
2022-11-15T19:18:32.181Z,160.43
2022-11-15T19:21:03.984Z,137.57
2022-11-15T19:23:35.072Z,138.07
2022-11-15T19:26:04.078Z,114.53
2022-11-15T19:28:33.809Z,109.37
2022-11-15T19:31:07.367Z,102.90
2022-11-15T19:33:35.835Z,117.47
2022-11-15T19:36:04.262Z,119.93
2022-11-15T19:38:32.890Z,100.97
2022-11-15T19:41:01.456Z,100.77
2022-11-15T19:43:30.027Z,114.30
2022-11-15T19:46:02.539Z,101.63
2022-11-15T19:48:31.575Z,119.20
2022-11-15T19:51:01.813Z,94.17
2022-11-15T19:53:34.649Z,87.93
2022-11-15T19:56:04.559Z,84.80
2022-11-15T19:58:33.934Z,79.30
2022-11-15T20:01:04.077Z,59.20
2022-11-15T20:03:32.984Z,89.60
2022-11-15T20:06:04.722Z,84.40
2022-11-15T20:08:33.506Z,69.83
2022-11-15T20:11:02.144Z,71.67
2022-11-15T20:13:30.908Z,83.17
2022-11-15T20:15:59.687Z,68.67
2022-11-15T20:18:29.747Z,64.70
2022-11-15T20:20:59.124Z,67.67
2022-11-15T20:23:27.602Z,69.40
2022-11-15T20:25:56.056Z,62.57
2022-11-15T20:28:24.726Z,60.97
2022-11-15T20:30:53.516Z,66.90
2022-11-15T20:33:22.525Z,57.87
2022-11-15T20:35:52.172Z,49.00
2022-11-15T20:38:21.479Z,61.43
2022-11-15T20:40:49.918Z,63.23
2022-11-15T20:43:18.777Z,55.77
2022-11-15T20:45:47.696Z,45.93
2022-11-15T20:48:16.171Z,52.63
2022-11-15T20:50:44.774Z,52.77
2022-11-15T20:53:14.851Z,46.97
2022-11-15T20:55:43.177Z,50.47
2022-11-15T20:58:11.615Z,46.33
2022-11-15T21:00:42.056Z,42.63
2022-11-15T21:03:10.697Z,42.57
2022-11-15T21:05:39.350Z,42.13
2022-11-15T21:08:07.798Z,36.30
2022-11-15T21:10:55.062Z,37.57
2022-11-15T21:13:23.564Z,40.80
2022-11-15T21:15:52.434Z,31.47
2022-11-15T21:18:20.793Z,34.00
2022-11-15T21:20:49.213Z,28.80
2022-11-15T21:23:17.558Z,27.80
2022-11-15T21:25:51.280Z,28.63
2022-11-15T21:28:19.886Z,28.33
2022-11-15T21:30:54.262Z,25.00
2022-11-15T21:33:23.898Z,21.67
2022-11-15T21:35:52.709Z,29.43
2022-11-15T21:38:21.064Z,25.17
2022-11-15T21:40:51.028Z,24.40
2022-11-15T21:43:19.605Z,21.43
2022-11-15T21:45:56.897Z,29.13
2022-11-15T21:48:25.281Z,21.50
2022-11-15T21:50:57.026Z,24.40
2022-11-15T21:53:25.592Z,26.20
2022-11-15T21:55:55.397Z,21.27
2022-11-15T21:58:23.687Z,20.30
2022-11-15T22:01:09.779Z,15.03
2022-11-15T22:03:38.302Z,19.60
2022-11-15T22:06:07.005Z,15.53
2022-11-15T22:08:35.725Z,26.80
2022-11-15T22:11:05.734Z,20.03
2022-11-15T22:13:34.210Z,18.43
2022-11-15T22:16:02.557Z,21.67
2022-11-15T22:18:30.930Z,20.53
2022-11-15T22:20:59.712Z,16.17
2022-11-15T22:23:28.502Z,20.40
2022-11-15T22:25:56.843Z,15.57
2022-11-15T22:28:26.642Z,18.97
2022-11-15T22:30:55.204Z,16.00
2022-11-15T22:33:25.009Z,18.17
2022-11-15T22:35:53.329Z,20.30
2022-11-15T22:38:21.618Z,19.77
2022-11-15T22:40:49.894Z,20.40
2022-11-15T22:43:18.789Z,21.10
2022-11-15T22:45:54.950Z,17.53
2022-11-15T22:48:23.593Z,16.20
2022-11-15T22:50:51.878Z,15.17
2022-11-15T22:53:20.312Z,13.80
2022-11-15T22:55:51.934Z,12.27
2022-11-15T22:58:20.496Z,12.00
2022-11-15T23:00:50.542Z,16.10
2022-11-15T23:03:20.829Z,9.13
2022-11-15T23:05:49.431Z,12.73
2022-11-15T23:08:17.770Z,18.40
2022-11-15T23:11:03.622Z,17.47
2022-11-15T23:13:32.736Z,27.80
2022-11-15T23:16:22.678Z,28.77
2022-11-15T23:18:52.574Z,34.60
2022-11-15T23:21:42.446Z,32.87
2022-11-15T23:24:10.075Z,33.57
2022-11-15T23:26:38.399Z,24.83
2022-11-15T23:29:06.832Z,28.50
2022-11-15T23:32:01.052Z,28.57
2022-11-15T23:34:31.121Z,26.70
2022-11-15T23:36:59.420Z,27.43
2022-11-15T23:39:27.811Z,25.87
2022-11-15T23:41:56.127Z,22.40
2022-11-15T23:44:24.401Z,24.40
2022-11-15T23:46:52.640Z,23.43
2022-11-15T23:49:20.971Z,22.87
2022-11-15T23:51:50.639Z,19.53
2022-11-15T23:54:18.936Z,20.00
2022-11-15T23:56:47.236Z,18.17
2022-11-15T23:59:15.502Z,18.60
